sensor_id;sensor_type;location;lat;lon;timestamp;P1;durP1;ratioP1;P2;durP2;ratioP2
76348;SDS011;65172;46.764;15.406;2023-02-18T00:01:12;17.85;;;8.13;;
76348;SDS011;65172;46.764;15.406;2023-02-18T00:03:40;15.20;;;7.43;;
76348;SDS011;65172;46.764;15.406;2023-02-18T00:06:11;13.00;;;7.88;;
76348;SDS011;65172;46.764;15.406;2023-02-18T00:08:38;13.05;;;6.88;;
76348;SDS011;65172;46.764;15.406;2023-02-18T00:11:06;13.82;;;7.10;;
76348;SDS011;65172;46.764;15.406;2023-02-18T00:13:32;11.85;;;6.57;;
76348;SDS011;65172;46.764;15.406;2023-02-18T00:16:05;14.65;;;7.30;;
76348;SDS011;65172;46.764;15.406;2023-02-18T00:18:35;14.15;;;7.45;;
76348;SDS011;65172;46.764;15.406;2023-02-18T00:21:04;12.25;;;7.50;;
76348;SDS011;65172;46.764;15.406;2023-02-18T00:23:31;13.43;;;6.88;;
76348;SDS011;65172;46.764;15.406;2023-02-18T00:25:58;10.13;;;6.40;;
76348;SDS011;65172;46.764;15.406;2023-02-18T00:28:29;13.02;;;7.05;;
76348;SDS011;65172;46.764;15.406;2023-02-18T00:30:55;11.85;;;7.05;;
76348;SDS011;65172;46.764;15.406;2023-02-18T00:33:20;10.80;;;6.95;;
76348;SDS011;65172;46.764;15.406;2023-02-18T00:35:46;11.68;;;8.05;;
76348;SDS011;65172;46.764;15.406;2023-02-18T00:38:12;15.02;;;7.82;;
76348;SDS011;65172;46.764;15.406;2023-02-18T00:40:38;13.20;;;7.90;;
76348;SDS011;65172;46.764;15.406;2023-02-18T00:43:04;14.40;;;7.95;;
76348;SDS011;65172;46.764;15.406;2023-02-18T00:45:29;14.55;;;7.85;;
76348;SDS011;65172;46.764;15.406;2023-02-18T00:47:55;14.85;;;8.23;;
76348;SDS011;65172;46.764;15.406;2023-02-18T00:50:21;12.02;;;7.65;;
76348;SDS011;65172;46.764;15.406;2023-02-18T00:52:46;12.80;;;7.25;;
76348;SDS011;65172;46.764;15.406;2023-02-18T00:55:12;10.73;;;6.45;;
76348;SDS011;65172;46.764;15.406;2023-02-18T00:57:37;11.88;;;7.03;;
76348;SDS011;65172;46.764;15.406;2023-02-18T01:00:04;18.27;;;7.13;;
76348;SDS011;65172;46.764;15.406;2023-02-18T01:02:30;11.93;;;7.03;;
76348;SDS011;65172;46.764;15.406;2023-02-18T01:04:56;12.32;;;6.07;;
76348;SDS011;65172;46.764;15.406;2023-02-18T01:07:22;13.90;;;6.43;;
76348;SDS011;65172;46.764;15.406;2023-02-18T01:09:47;10.05;;;5.90;;
76348;SDS011;65172;46.764;15.406;2023-02-18T01:12:13;9.80;;;5.65;;
76348;SDS011;65172;46.764;15.406;2023-02-18T01:14:39;10.32;;;6.35;;
76348;SDS011;65172;46.764;15.406;2023-02-18T01:17:04;10.32;;;5.68;;
76348;SDS011;65172;46.764;15.406;2023-02-18T01:19:30;9.18;;;5.50;;
76348;SDS011;65172;46.764;15.406;2023-02-18T01:21:55;8.30;;;6.20;;
76348;SDS011;65172;46.764;15.406;2023-02-18T01:24:21;10.32;;;5.55;;
76348;SDS011;65172;46.764;15.406;2023-02-18T01:26:46;9.98;;;5.78;;
76348;SDS011;65172;46.764;15.406;2023-02-18T01:29:12;10.35;;;5.38;;
76348;SDS011;65172;46.764;15.406;2023-02-18T01:31:37;9.25;;;5.50;;
76348;SDS011;65172;46.764;15.406;2023-02-18T01:34:03;8.75;;;5.45;;
76348;SDS011;65172;46.764;15.406;2023-02-18T01:36:28;7.53;;;5.22;;
76348;SDS011;65172;46.764;15.406;2023-02-18T01:38:54;9.45;;;5.30;;
76348;SDS011;65172;46.764;15.406;2023-02-18T01:41:19;9.40;;;5.93;;
76348;SDS011;65172;46.764;15.406;2023-02-18T01:43:45;9.90;;;5.68;;
76348;SDS011;65172;46.764;15.406;2023-02-18T01:46:12;11.38;;;6.35;;
76348;SDS011;65172;46.764;15.406;2023-02-18T01:48:43;9.27;;;6.18;;
76348;SDS011;65172;46.764;15.406;2023-02-18T01:51:14;9.82;;;5.38;;
76348;SDS011;65172;46.764;15.406;2023-02-18T01:56:14;9.93;;;6.38;;
76348;SDS011;65172;46.764;15.406;2023-02-18T01:58:43;9.23;;;5.47;;
76348;SDS011;65172;46.764;15.406;2023-02-18T02:01:09;10.40;;;6.13;;
76348;SDS011;65172;46.764;15.406;2023-02-18T02:03:35;9.82;;;5.70;;
76348;SDS011;65172;46.764;15.406;2023-02-18T02:06:00;8.73;;;5.70;;
76348;SDS011;65172;46.764;15.406;2023-02-18T02:08:27;10.48;;;6.10;;
76348;SDS011;65172;46.764;15.406;2023-02-18T02:11:04;9.35;;;5.75;;
76348;SDS011;65172;46.764;15.406;2023-02-18T02:16:56;11.15;;;5.65;;
76348;SDS011;65172;46.764;15.406;2023-02-18T02:22:09;9.20;;;6.18;;
76348;SDS011;65172;46.764;15.406;2023-02-18T02:24:59;11.13;;;6.05;;
76348;SDS011;65172;46.764;15.406;2023-02-18T02:46:39;10.35;;;5.05;;
76348;SDS011;65172;46.764;15.406;2023-02-18T02:51:46;9.55;;;5.40;;
76348;SDS011;65172;46.764;15.406;2023-02-18T02:54:25;10.57;;;5.70;;
76348;SDS011;65172;46.764;15.406;2023-02-18T02:57:08;8.95;;;4.90;;
76348;SDS011;65172;46.764;15.406;2023-02-18T02:59:57;11.75;;;5.20;;
76348;SDS011;65172;46.764;15.406;2023-02-18T03:07:54;8.63;;;5.78;;
76348;SDS011;65172;46.764;15.406;2023-02-18T03:13:04;8.88;;;5.32;;
76348;SDS011;65172;46.764;15.406;2023-02-18T03:18:33;8.80;;;5.60;;
76348;SDS011;65172;46.764;15.406;2023-02-18T03:24:03;10.30;;;5.80;;
76348;SDS011;65172;46.764;15.406;2023-02-18T03:26:32;9.45;;;5.72;;
76348;SDS011;65172;46.764;15.406;2023-02-18T03:29:01;10.20;;;5.53;;
76348;SDS011;65172;46.764;15.406;2023-02-18T03:31:28;8.10;;;5.43;;
76348;SDS011;65172;46.764;15.406;2023-02-18T03:33:59;10.95;;;5.72;;
76348;SDS011;65172;46.764;15.406;2023-02-18T03:36:26;9.60;;;5.40;;
76348;SDS011;65172;46.764;15.406;2023-02-18T03:41:25;7.90;;;4.80;;
76348;SDS011;65172;46.764;15.406;2023-02-18T03:43:51;7.72;;;4.90;;
76348;SDS011;65172;46.764;15.406;2023-02-18T03:46:19;10.13;;;5.07;;
76348;SDS011;65172;46.764;15.406;2023-02-18T03:48:45;7.47;;;4.47;;
76348;SDS011;65172;46.764;15.406;2023-02-18T03:51:10;8.25;;;4.78;;
76348;SDS011;65172;46.764;15.406;2023-02-18T03:53:36;8.27;;;5.38;;
76348;SDS011;65172;46.764;15.406;2023-02-18T03:56:01;9.80;;;5.07;;
76348;SDS011;65172;46.764;15.406;2023-02-18T03:58:27;10.57;;;5.65;;
76348;SDS011;65172;46.764;15.406;2023-02-18T04:00:53;10.60;;;5.53;;
76348;SDS011;65172;46.764;15.406;2023-02-18T04:03:18;10.30;;;5.63;;
76348;SDS011;65172;46.764;15.406;2023-02-18T04:05:44;9.70;;;5.68;;
76348;SDS011;65172;46.764;15.406;2023-02-18T04:08:09;9.70;;;5.30;;
76348;SDS011;65172;46.764;15.406;2023-02-18T04:10:35;9.93;;;5.45;;
76348;SDS011;65172;46.764;15.406;2023-02-18T04:13:00;10.40;;;5.22;;
76348;SDS011;65172;46.764;15.406;2023-02-18T04:15:29;8.48;;;5.20;;
76348;SDS011;65172;46.764;15.406;2023-02-18T04:17:55;8.93;;;5.38;;
76348;SDS011;65172;46.764;15.406;2023-02-18T04:20:20;10.23;;;5.22;;
76348;SDS011;65172;46.764;15.406;2023-02-18T04:22:46;12.20;;;5.40;;
76348;SDS011;65172;46.764;15.406;2023-02-18T04:25:12;9.85;;;5.45;;
76348;SDS011;65172;46.764;15.406;2023-02-18T04:27:38;10.38;;;5.45;;
76348;SDS011;65172;46.764;15.406;2023-02-18T04:30:04;12.82;;;6.03;;
76348;SDS011;65172;46.764;15.406;2023-02-18T04:32:30;9.27;;;5.38;;
76348;SDS011;65172;46.764;15.406;2023-02-18T04:34:55;9.13;;;5.18;;
76348;SDS011;65172;46.764;15.406;2023-02-18T04:37:21;10.50;;;5.47;;
76348;SDS011;65172;46.764;15.406;2023-02-18T04:39:46;8.70;;;5.00;;
76348;SDS011;65172;46.764;15.406;2023-02-18T04:42:12;9.40;;;4.95;;
76348;SDS011;65172;46.764;15.406;2023-02-18T04:44:38;9.07;;;5.00;;
76348;SDS011;65172;46.764;15.406;2023-02-18T04:47:06;8.50;;;4.90;;
76348;SDS011;65172;46.764;15.406;2023-02-18T04:49:32;8.93;;;5.10;;
76348;SDS011;65172;46.764;15.406;2023-02-18T04:51:58;7.18;;;4.97;;
76348;SDS011;65172;46.764;15.406;2023-02-18T04:54:23;9.05;;;5.47;;
76348;SDS011;65172;46.764;15.406;2023-02-18T04:56:49;10.20;;;5.63;;
76348;SDS011;65172;46.764;15.406;2023-02-18T04:59:14;9.50;;;6.22;;
76348;SDS011;65172;46.764;15.406;2023-02-18T05:01:40;11.38;;;5.18;;
76348;SDS011;65172;46.764;15.406;2023-02-18T05:04:06;10.20;;;4.93;;
76348;SDS011;65172;46.764;15.406;2023-02-18T05:06:31;11.00;;;5.72;;
76348;SDS011;65172;46.764;15.406;2023-02-18T05:08:57;9.23;;;5.85;;
76348;SDS011;65172;46.764;15.406;2023-02-18T05:11:22;11.13;;;5.72;;
76348;SDS011;65172;46.764;15.406;2023-02-18T05:13:48;10.80;;;5.32;;
76348;SDS011;65172;46.764;15.406;2023-02-18T05:16:13;11.45;;;5.90;;
76348;SDS011;65172;46.764;15.406;2023-02-18T05:18:39;10.05;;;6.25;;
76348;SDS011;65172;46.764;15.406;2023-02-18T05:21:05;10.05;;;5.65;;
76348;SDS011;65172;46.764;15.406;2023-02-18T05:23:30;11.90;;;5.88;;
76348;SDS011;65172;46.764;15.406;2023-02-18T05:25:56;11.27;;;5.63;;
76348;SDS011;65172;46.764;15.406;2023-02-18T05:28:21;9.02;;;5.60;;
76348;SDS011;65172;46.764;15.406;2023-02-18T05:30:47;10.00;;;5.28;;
76348;SDS011;65172;46.764;15.406;2023-02-18T05:33:13;13.73;;;5.45;;
76348;SDS011;65172;46.764;15.406;2023-02-18T05:35:38;11.10;;;5.70;;
76348;SDS011;65172;46.764;15.406;2023-02-18T05:38:04;9.15;;;5.72;;
76348;SDS011;65172;46.764;15.406;2023-02-18T05:40:29;8.80;;;5.63;;
76348;SDS011;65172;46.764;15.406;2023-02-18T05:42:55;11.10;;;5.85;;
76348;SDS011;65172;46.764;15.406;2023-02-18T05:45:20;8.88;;;5.47;;
76348;SDS011;65172;46.764;15.406;2023-02-18T05:47:46;8.80;;;5.65;;
76348;SDS011;65172;46.764;15.406;2023-02-18T05:50:11;11.38;;;5.68;;
76348;SDS011;65172;46.764;15.406;2023-02-18T05:52:37;9.95;;;5.50;;
76348;SDS011;65172;46.764;15.406;2023-02-18T05:55:03;12.48;;;5.90;;
76348;SDS011;65172;46.764;15.406;2023-02-18T05:57:28;10.70;;;5.30;;
76348;SDS011;65172;46.764;15.406;2023-02-18T05:59:54;10.60;;;5.72;;
76348;SDS011;65172;46.764;15.406;2023-02-18T06:02:20;8.02;;;5.07;;
76348;SDS011;65172;46.764;15.406;2023-02-18T06:04:45;10.20;;;5.18;;
76348;SDS011;65172;46.764;15.406;2023-02-18T06:07:10;10.60;;;5.30;;
76348;SDS011;65172;46.764;15.406;2023-02-18T06:09:36;9.23;;;5.00;;
76348;SDS011;65172;46.764;15.406;2023-02-18T06:12:02;10.23;;;5.05;;
76348;SDS011;65172;46.764;15.406;2023-02-18T06:14:27;10.27;;;5.10;;
76348;SDS011;65172;46.764;15.406;2023-02-18T06:16:53;12.30;;;5.07;;
76348;SDS011;65172;46.764;15.406;2023-02-18T06:19:18;7.55;;;4.53;;
76348;SDS011;65172;46.764;15.406;2023-02-18T06:21:44;9.93;;;5.10;;
76348;SDS011;65172;46.764;15.406;2023-02-18T06:24:09;9.18;;;5.80;;
76348;SDS011;65172;46.764;15.406;2023-02-18T06:26:35;9.95;;;5.25;;
76348;SDS011;65172;46.764;15.406;2023-02-18T06:29:00;10.23;;;5.00;;
76348;SDS011;65172;46.764;15.406;2023-02-18T06:31:26;11.82;;;4.85;;
76348;SDS011;65172;46.764;15.406;2023-02-18T06:33:52;10.70;;;5.00;;
76348;SDS011;65172;46.764;15.406;2023-02-18T06:36:17;10.20;;;5.35;;
76348;SDS011;65172;46.764;15.406;2023-02-18T06:38:43;7.45;;;4.72;;
76348;SDS011;65172;46.764;15.406;2023-02-18T06:41:10;9.00;;;5.05;;
76348;SDS011;65172;46.764;15.406;2023-02-18T06:43:36;8.30;;;5.00;;
76348;SDS011;65172;46.764;15.406;2023-02-18T06:46:02;9.02;;;5.43;;
76348;SDS011;65172;46.764;15.406;2023-02-18T06:48:28;10.35;;;5.50;;
76348;SDS011;65172;46.764;15.406;2023-02-18T06:50:54;9.75;;;5.40;;
76348;SDS011;65172;46.764;15.406;2023-02-18T06:53:20;9.32;;;5.32;;
76348;SDS011;65172;46.764;15.406;2023-02-18T06:55:46;9.45;;;5.32;;
76348;SDS011;65172;46.764;15.406;2023-02-18T06:58:13;12.57;;;5.82;;
76348;SDS011;65172;46.764;15.406;2023-02-18T07:00:38;11.30;;;5.68;;
76348;SDS011;65172;46.764;15.406;2023-02-18T07:03:04;9.50;;;5.53;;
76348;SDS011;65172;46.764;15.406;2023-02-18T07:05:30;10.45;;;5.55;;
76348;SDS011;65172;46.764;15.406;2023-02-18T07:07:56;12.55;;;5.82;;
76348;SDS011;65172;46.764;15.406;2023-02-18T07:10:21;10.18;;;5.97;;
76348;SDS011;65172;46.764;15.406;2023-02-18T07:12:47;8.98;;;6.22;;
76348;SDS011;65172;46.764;15.406;2023-02-18T07:15:13;12.73;;;6.07;;
76348;SDS011;65172;46.764;15.406;2023-02-18T07:17:39;8.65;;;5.40;;
76348;SDS011;65172;46.764;15.406;2023-02-18T07:20:04;10.13;;;5.85;;
76348;SDS011;65172;46.764;15.406;2023-02-18T07:22:31;11.32;;;6.28;;
76348;SDS011;65172;46.764;15.406;2023-02-18T07:24:56;11.90;;;6.07;;
76348;SDS011;65172;46.764;15.406;2023-02-18T07:27:22;11.07;;;6.07;;
76348;SDS011;65172;46.764;15.406;2023-02-18T07:29:48;9.15;;;5.45;;
76348;SDS011;65172;46.764;15.406;2023-02-18T07:32:14;9.57;;;5.35;;
76348;SDS011;65172;46.764;15.406;2023-02-18T07:34:41;10.68;;;6.15;;
76348;SDS011;65172;46.764;15.406;2023-02-18T07:37:06;10.73;;;5.57;;
76348;SDS011;65172;46.764;15.406;2023-02-18T07:39:35;12.70;;;6.20;;
76348;SDS011;65172;46.764;15.406;2023-02-18T07:42:03;10.45;;;5.82;;
76348;SDS011;65172;46.764;15.406;2023-02-18T07:44:29;10.48;;;5.53;;
76348;SDS011;65172;46.764;15.406;2023-02-18T07:46:55;10.02;;;5.57;;
76348;SDS011;65172;46.764;15.406;2023-02-18T07:49:20;10.25;;;5.70;;
76348;SDS011;65172;46.764;15.406;2023-02-18T07:51:46;9.50;;;5.68;;
76348;SDS011;65172;46.764;15.406;2023-02-18T07:54:12;11.40;;;5.60;;
76348;SDS011;65172;46.764;15.406;2023-02-18T07:56:38;11.20;;;5.43;;
76348;SDS011;65172;46.764;15.406;2023-02-18T07:59:04;10.60;;;5.85;;
76348;SDS011;65172;46.764;15.406;2023-02-18T08:01:30;13.88;;;5.60;;
76348;SDS011;65172;46.764;15.406;2023-02-18T08:03:55;12.18;;;5.50;;
76348;SDS011;65172;46.764;15.406;2023-02-18T08:06:24;10.27;;;5.53;;
76348;SDS011;65172;46.764;15.406;2023-02-18T08:09:01;18.63;;;6.28;;
76348;SDS011;65172;46.764;15.406;2023-02-18T08:11:27;8.93;;;5.00;;
76348;SDS011;65172;46.764;15.406;2023-02-18T08:13:52;10.00;;;5.50;;
76348;SDS011;65172;46.764;15.406;2023-02-18T08:16:19;61.45;;;29.45;;
76348;SDS011;65172;46.764;15.406;2023-02-18T08:18:45;19.85;;;10.82;;
76348;SDS011;65172;46.764;15.406;2023-02-18T08:21:12;16.48;;;8.55;;
76348;SDS011;65172;46.764;15.406;2023-02-18T08:23:38;10.40;;;6.47;;
76348;SDS011;65172;46.764;15.406;2023-02-18T08:26:07;10.52;;;5.90;;
76348;SDS011;65172;46.764;15.406;2023-02-18T08:28:33;11.80;;;5.50;;
76348;SDS011;65172;46.764;15.406;2023-02-18T08:30:59;9.00;;;5.93;;
76348;SDS011;65172;46.764;15.406;2023-02-18T08:33:24;9.38;;;5.47;;
76348;SDS011;65172;46.764;15.406;2023-02-18T08:35:51;10.15;;;6.30;;
76348;SDS011;65172;46.764;15.406;2023-02-18T08:38:17;11.38;;;5.63;;
76348;SDS011;65172;46.764;15.406;2023-02-18T08:40:42;8.57;;;5.13;;
76348;SDS011;65172;46.764;15.406;2023-02-18T08:43:08;8.48;;;5.53;;
76348;SDS011;65172;46.764;15.406;2023-02-18T08:45:35;11.73;;;5.47;;
76348;SDS011;65172;46.764;15.406;2023-02-18T08:48:02;10.45;;;5.80;;
76348;SDS011;65172;46.764;15.406;2023-02-18T08:50:30;9.65;;;5.57;;
76348;SDS011;65172;46.764;15.406;2023-02-18T08:52:56;10.18;;;5.38;;
76348;SDS011;65172;46.764;15.406;2023-02-18T08:55:27;10.50;;;5.53;;
76348;SDS011;65172;46.764;15.406;2023-02-18T08:57:53;9.82;;;6.10;;
76348;SDS011;65172;46.764;15.406;2023-02-18T09:00:19;9.60;;;5.93;;
76348;SDS011;65172;46.764;15.406;2023-02-18T09:02:44;10.30;;;6.00;;
76348;SDS011;65172;46.764;15.406;2023-02-18T09:05:12;9.80;;;5.93;;
76348;SDS011;65172;46.764;15.406;2023-02-18T09:07:38;11.90;;;6.40;;
76348;SDS011;65172;46.764;15.406;2023-02-18T09:10:04;9.02;;;5.55;;
76348;SDS011;65172;46.764;15.406;2023-02-18T09:12:30;9.45;;;5.47;;
76348;SDS011;65172;46.764;15.406;2023-02-18T09:14:55;8.88;;;5.32;;
76348;SDS011;65172;46.764;15.406;2023-02-18T09:17:21;11.50;;;5.90;;
76348;SDS011;65172;46.764;15.406;2023-02-18T09:19:46;9.02;;;5.63;;
76348;SDS011;65172;46.764;15.406;2023-02-18T09:22:12;10.27;;;5.70;;
76348;SDS011;65172;46.764;15.406;2023-02-18T09:24:38;13.82;;;8.00;;
76348;SDS011;65172;46.764;15.406;2023-02-18T09:27:04;9.63;;;5.90;;
76348;SDS011;65172;46.764;15.406;2023-02-18T09:29:30;8.48;;;5.68;;
76348;SDS011;65172;46.764;15.406;2023-02-18T09:31:59;10.57;;;6.50;;
76348;SDS011;65172;46.764;15.406;2023-02-18T09:34:25;9.52;;;5.63;;
76348;SDS011;65172;46.764;15.406;2023-02-18T09:36:50;10.25;;;6.45;;
76348;SDS011;65172;46.764;15.406;2023-02-18T09:39:16;11.43;;;6.85;;
76348;SDS011;65172;46.764;15.406;2023-02-18T09:41:46;9.77;;;6.22;;
76348;SDS011;65172;46.764;15.406;2023-02-18T09:46:49;8.80;;;5.60;;
76348;SDS011;65172;46.764;15.406;2023-02-18T09:49:19;10.05;;;5.78;;
76348;SDS011;65172;46.764;15.406;2023-02-18T09:51:46;10.25;;;5.20;;
76348;SDS011;65172;46.764;15.406;2023-02-18T09:54:13;10.40;;;6.05;;
76348;SDS011;65172;46.764;15.406;2023-02-18T09:56:40;10.85;;;6.18;;
76348;SDS011;65172;46.764;15.406;2023-02-18T09:59:08;12.27;;;6.50;;
76348;SDS011;65172;46.764;15.406;2023-02-18T10:01:37;9.48;;;5.45;;
76348;SDS011;65172;46.764;15.406;2023-02-18T10:04:39;9.98;;;5.85;;
76348;SDS011;65172;46.764;15.406;2023-02-18T10:07:01;9.63;;;5.95;;
76348;SDS011;65172;46.764;15.406;2023-02-18T10:09:29;11.40;;;5.55;;
76348;SDS011;65172;46.764;15.406;2023-02-18T10:12:03;12.00;;;6.28;;
76348;SDS011;65172;46.764;15.406;2023-02-18T10:14:37;10.43;;;5.82;;
76348;SDS011;65172;46.764;15.406;2023-02-18T10:17:03;8.15;;;5.32;;
76348;SDS011;65172;46.764;15.406;2023-02-18T10:19:31;10.25;;;6.18;;
76348;SDS011;65172;46.764;15.406;2023-02-18T10:22:01;12.10;;;6.13;;
76348;SDS011;65172;46.764;15.406;2023-02-18T10:24:32;12.68;;;5.85;;
76348;SDS011;65172;46.764;15.406;2023-02-18T10:27:01;10.38;;;5.65;;
76348;SDS011;65172;46.764;15.406;2023-02-18T10:29:28;9.10;;;5.85;;
76348;SDS011;65172;46.764;15.406;2023-02-18T10:32:15;12.05;;;6.05;;
76348;SDS011;65172;46.764;15.406;2023-02-18T10:40:17;9.15;;;5.43;;
76348;SDS011;65172;46.764;15.406;2023-02-18T10:46:11;10.35;;;7.00;;
76348;SDS011;65172;46.764;15.406;2023-02-18T10:51:39;11.20;;;5.90;;
76348;SDS011;65172;46.764;15.406;2023-02-18T10:54:09;10.15;;;6.38;;
76348;SDS011;65172;46.764;15.406;2023-02-18T10:56:40;10.38;;;7.30;;
76348;SDS011;65172;46.764;15.406;2023-02-18T11:01:51;8.32;;;5.60;;
76348;SDS011;65172;46.764;15.406;2023-02-18T11:04:32;12.57;;;5.70;;
76348;SDS011;65172;46.764;15.406;2023-02-18T11:07:05;9.82;;;5.72;;
76348;SDS011;65172;46.764;15.406;2023-02-18T11:09:40;14.07;;;6.68;;
76348;SDS011;65172;46.764;15.406;2023-02-18T11:12:18;12.73;;;6.60;;
76348;SDS011;65172;46.764;15.406;2023-02-18T11:14:50;9.18;;;5.93;;
76348;SDS011;65172;46.764;15.406;2023-02-18T11:17:49;9.82;;;5.70;;
76348;SDS011;65172;46.764;15.406;2023-02-18T11:22:41;10.90;;;5.75;;
76348;SDS011;65172;46.764;15.406;2023-02-18T11:25:20;11.35;;;5.97;;
76348;SDS011;65172;46.764;15.406;2023-02-18T11:27:48;10.88;;;5.93;;
76348;SDS011;65172;46.764;15.406;2023-02-18T11:30:23;10.00;;;6.05;;
76348;SDS011;65172;46.764;15.406;2023-02-18T11:32:55;7.90;;;5.07;;
76348;SDS011;65172;46.764;15.406;2023-02-18T11:35:49;10.00;;;5.13;;
76348;SDS011;65172;46.764;15.406;2023-02-18T11:40:54;7.78;;;5.28;;
76348;SDS011;65172;46.764;15.406;2023-02-18T11:43:21;9.93;;;5.65;;
76348;SDS011;65172;46.764;15.406;2023-02-18T11:45:48;9.88;;;5.78;;
76348;SDS011;65172;46.764;15.406;2023-02-18T11:48:35;8.25;;;5.40;;
76348;SDS011;65172;46.764;15.406;2023-02-18T11:51:02;8.00;;;4.95;;
76348;SDS011;65172;46.764;15.406;2023-02-18T11:53:33;7.53;;;5.18;;
76348;SDS011;65172;46.764;15.406;2023-02-18T11:56:01;8.65;;;5.18;;
76348;SDS011;65172;46.764;15.406;2023-02-18T11:58:37;7.80;;;4.68;;
76348;SDS011;65172;46.764;15.406;2023-02-18T12:01:05;7.38;;;4.90;;
76348;SDS011;65172;46.764;15.406;2023-02-18T12:03:45;11.70;;;5.15;;
76348;SDS011;65172;46.764;15.406;2023-02-18T12:06:36;11.18;;;5.05;;
76348;SDS011;65172;46.764;15.406;2023-02-18T12:09:10;10.02;;;4.53;;
76348;SDS011;65172;46.764;15.406;2023-02-18T12:11:43;7.97;;;5.25;;
76348;SDS011;65172;46.764;15.406;2023-02-18T12:14:17;10.10;;;5.50;;
76348;SDS011;65172;46.764;15.406;2023-02-18T12:27:28;12.65;;;5.40;;
76348;SDS011;65172;46.764;15.406;2023-02-18T12:46:14;11.60;;;5.43;;
76348;SDS011;65172;46.764;15.406;2023-02-18T12:59:57;10.52;;;5.65;;
76348;SDS011;65172;46.764;15.406;2023-02-18T13:05:27;7.78;;;4.88;;
76348;SDS011;65172;46.764;15.406;2023-02-18T13:10:56;10.93;;;5.20;;
76348;SDS011;65172;46.764;15.406;2023-02-18T13:13:49;9.45;;;4.70;;
76348;SDS011;65172;46.764;15.406;2023-02-18T13:16:17;10.57;;;5.25;;
76348;SDS011;65172;46.764;15.406;2023-02-18T13:21:31;11.25;;;5.72;;
76348;SDS011;65172;46.764;15.406;2023-02-18T13:24:00;9.23;;;5.28;;
76348;SDS011;65172;46.764;15.406;2023-02-18T13:26:28;8.68;;;5.60;;
76348;SDS011;65172;46.764;15.406;2023-02-18T13:39:53;10.52;;;5.97;;
76348;SDS011;65172;46.764;15.406;2023-02-18T13:47:44;12.30;;;6.40;;
76348;SDS011;65172;46.764;15.406;2023-02-18T13:58:21;11.35;;;6.32;;
76348;SDS011;65172;46.764;15.406;2023-02-18T14:06:12;9.57;;;5.68;;
76348;SDS011;65172;46.764;15.406;2023-02-18T14:08:40;10.10;;;5.93;;
76348;SDS011;65172;46.764;15.406;2023-02-18T14:13:53;12.60;;;6.65;;
76348;SDS011;65172;46.764;15.406;2023-02-18T14:16:20;12.05;;;6.90;;
76348;SDS011;65172;46.764;15.406;2023-02-18T14:18:59;11.65;;;6.70;;
76348;SDS011;65172;46.764;15.406;2023-02-18T14:21:39;10.40;;;6.72;;
76348;SDS011;65172;46.764;15.406;2023-02-18T14:24:06;9.18;;;6.30;;
76348;SDS011;65172;46.764;15.406;2023-02-18T14:26:47;12.27;;;6.13;;
76348;SDS011;65172;46.764;15.406;2023-02-18T14:29:34;10.95;;;6.72;;
76348;SDS011;65172;46.764;15.406;2023-02-18T14:32:00;17.77;;;7.30;;
76348;SDS011;65172;46.764;15.406;2023-02-18T14:34:33;12.40;;;6.63;;
76348;SDS011;65172;46.764;15.406;2023-02-18T14:37:16;12.55;;;7.38;;
76348;SDS011;65172;46.764;15.406;2023-02-18T14:51:23;15.00;;;7.70;;
76348;SDS011;65172;46.764;15.406;2023-02-18T14:53:50;17.95;;;8.32;;
76348;SDS011;65172;46.764;15.406;2023-02-18T14:56:16;15.73;;;8.25;;
76348;SDS011;65172;46.764;15.406;2023-02-18T14:58:47;16.85;;;9.07;;
76348;SDS011;65172;46.764;15.406;2023-02-18T15:01:16;16.52;;;8.77;;
76348;SDS011;65172;46.764;15.406;2023-02-18T15:03:50;15.45;;;8.75;;
76348;SDS011;65172;46.764;15.406;2023-02-18T15:06:21;17.65;;;9.30;;
76348;SDS011;65172;46.764;15.406;2023-02-18T15:08:48;14.55;;;8.43;;
76348;SDS011;65172;46.764;15.406;2023-02-18T15:11:14;15.77;;;7.65;;
76348;SDS011;65172;46.764;15.406;2023-02-18T15:13:41;17.73;;;9.27;;
76348;SDS011;65172;46.764;15.406;2023-02-18T15:18:56;20.17;;;10.43;;
76348;SDS011;65172;46.764;15.406;2023-02-18T15:21:25;19.73;;;9.75;;
76348;SDS011;65172;46.764;15.406;2023-02-18T15:23:53;19.77;;;10.18;;
76348;SDS011;65172;46.764;15.406;2023-02-18T15:26:19;22.52;;;11.05;;
76348;SDS011;65172;46.764;15.406;2023-02-18T15:28:59;26.13;;;12.10;;
76348;SDS011;65172;46.764;15.406;2023-02-18T15:31:26;21.65;;;10.82;;
76348;SDS011;65172;46.764;15.406;2023-02-18T15:33:55;21.35;;;11.43;;
76348;SDS011;65172;46.764;15.406;2023-02-18T15:36:23;25.83;;;11.73;;
76348;SDS011;65172;46.764;15.406;2023-02-18T15:38:50;25.75;;;12.40;;
76348;SDS011;65172;46.764;15.406;2023-02-18T15:41:16;27.05;;;11.68;;
76348;SDS011;65172;46.764;15.406;2023-02-18T15:43:52;32.45;;;16.55;;
76348;SDS011;65172;46.764;15.406;2023-02-18T15:46:22;24.13;;;11.85;;
76348;SDS011;65172;46.764;15.406;2023-02-18T15:48:50;23.17;;;11.48;;
76348;SDS011;65172;46.764;15.406;2023-02-18T15:51:21;23.45;;;12.32;;
76348;SDS011;65172;46.764;15.406;2023-02-18T15:53:51;23.77;;;11.60;;
76348;SDS011;65172;46.764;15.406;2023-02-18T15:56:59;23.30;;;11.85;;
76348;SDS011;65172;46.764;15.406;2023-02-18T15:59:19;23.27;;;12.23;;
76348;SDS011;65172;46.764;15.406;2023-02-18T16:01:56;23.77;;;12.75;;
76348;SDS011;65172;46.764;15.406;2023-02-18T16:04:44;25.90;;;12.10;;
76348;SDS011;65172;46.764;15.406;2023-02-18T16:07:27;22.98;;;12.15;;
76348;SDS011;65172;46.764;15.406;2023-02-18T16:10:18;24.90;;;12.05;;
76348;SDS011;65172;46.764;15.406;2023-02-18T16:13:03;20.98;;;11.15;;
76348;SDS011;65172;46.764;15.406;2023-02-18T16:15:31;24.30;;;12.60;;
76348;SDS011;65172;46.764;15.406;2023-02-18T16:18:02;21.88;;;12.15;;
76348;SDS011;65172;46.764;15.406;2023-02-18T16:20:30;23.20;;;10.43;;
76348;SDS011;65172;46.764;15.406;2023-02-18T16:23:07;20.67;;;10.82;;
76348;SDS011;65172;46.764;15.406;2023-02-18T16:25:44;16.00;;;8.73;;
76348;SDS011;65172;46.764;15.406;2023-02-18T16:28:14;17.35;;;8.25;;
76348;SDS011;65172;46.764;15.406;2023-02-18T16:30:52;18.17;;;9.18;;
76348;SDS011;65172;46.764;15.406;2023-02-18T16:33:17;18.38;;;9.80;;
76348;SDS011;65172;46.764;15.406;2023-02-18T16:35:44;17.45;;;9.82;;
76348;SDS011;65172;46.764;15.406;2023-02-18T16:38:28;18.38;;;10.40;;
76348;SDS011;65172;46.764;15.406;2023-02-18T16:40:54;18.52;;;9.73;;
76348;SDS011;65172;46.764;15.406;2023-02-18T16:43:20;21.27;;;10.05;;
76348;SDS011;65172;46.764;15.406;2023-02-18T16:45:48;23.60;;;11.00;;
76348;SDS011;65172;46.764;15.406;2023-02-18T16:48:16;20.70;;;11.32;;
76348;SDS011;65172;46.764;15.406;2023-02-18T16:50:58;21.20;;;11.57;;
76348;SDS011;65172;46.764;15.406;2023-02-18T16:53:25;25.05;;;10.15;;
76348;SDS011;65172;46.764;15.406;2023-02-18T16:55:52;21.77;;;11.77;;
76348;SDS011;65172;46.764;15.406;2023-02-18T16:58:17;20.58;;;11.50;;
76348;SDS011;65172;46.764;15.406;2023-02-18T17:00:43;22.70;;;10.68;;
76348;SDS011;65172;46.764;15.406;2023-02-18T17:03:11;18.92;;;10.13;;
76348;SDS011;65172;46.764;15.406;2023-02-18T17:05:37;18.42;;;10.32;;
76348;SDS011;65172;46.764;15.406;2023-02-18T17:08:26;18.13;;;9.05;;
76348;SDS011;65172;46.764;15.406;2023-02-18T17:10:55;21.73;;;10.73;;
76348;SDS011;65172;46.764;15.406;2023-02-18T17:13:26;18.35;;;8.70;;
76348;SDS011;65172;46.764;15.406;2023-02-18T17:15:54;21.70;;;11.40;;